createdAt,value
2024-02-27T00:02:23.323Z,55.22
2024-02-27T00:04:50.309Z,55.08
2024-02-27T00:07:17.463Z,55.46
2024-02-27T00:09:45.686Z,55.84
2024-02-27T00:12:12.667Z,55.84
2024-02-27T00:14:39.699Z,55.68
2024-02-27T00:17:06.654Z,55.81
2024-02-27T00:19:33.687Z,55.79
2024-02-27T00:22:00.658Z,59.80
2024-02-27T00:24:27.608Z,56.21
2024-02-27T00:26:54.726Z,55.94
2024-02-27T00:29:22.964Z,56.01
2024-02-27T00:31:49.928Z,56.04
2024-02-27T00:34:17.378Z,55.41
2024-02-27T00:36:44.550Z,55.44
2024-02-27T00:39:11.733Z,55.52
2024-02-27T00:41:42.536Z,55.75
2024-02-27T00:44:11.253Z,55.69
2024-02-27T00:46:38.992Z,55.62
2024-02-27T00:49:06.262Z,55.89
2024-02-27T00:51:33.389Z,55.95
2024-02-27T00:54:00.841Z,56.13
2024-02-27T00:56:28.003Z,56.26
2024-02-27T00:58:54.926Z,56.22
2024-02-27T01:01:21.790Z,56.46
2024-02-27T01:03:48.894Z,56.35
2024-02-27T01:06:16.043Z,56.29
2024-02-27T01:08:43.136Z,56.35
2024-02-27T01:11:10.110Z,56.42
2024-02-27T01:13:37.211Z,56.38
2024-02-27T01:16:04.620Z,56.33
2024-02-27T01:18:31.813Z,56.58
2024-02-27T01:20:59.651Z,56.47
2024-02-27T01:23:26.920Z,56.45
2024-02-27T01:25:53.823Z,56.74
2024-02-27T01:28:20.707Z,56.80
2024-02-27T01:30:47.684Z,56.71
2024-02-27T01:33:14.784Z,56.81
2024-02-27T01:35:41.936Z,56.86
2024-02-27T01:38:08.867Z,57.10
2024-02-27T01:40:35.829Z,57.10
2024-02-27T01:43:02.732Z,57.33
2024-02-27T01:45:30.123Z,57.30
2024-02-27T01:47:58.033Z,57.45
2024-02-27T01:50:25.784Z,57.43
2024-02-27T01:52:53.604Z,57.80
2024-02-27T01:55:21.200Z,58.10
2024-02-27T01:57:50.370Z,58.29
2024-02-27T02:00:17.939Z,58.19
2024-02-27T02:02:45.941Z,58.46
2024-02-27T02:05:14.207Z,58.00
2024-02-27T02:07:42.015Z,57.88
2024-02-27T02:10:15.506Z,57.47
2024-02-27T02:12:42.650Z,57.60
2024-02-27T02:15:10.086Z,57.34
2024-02-27T02:17:37.181Z,57.51
2024-02-27T02:20:06.687Z,57.25
2024-02-27T02:22:34.917Z,57.23
2024-02-27T02:25:02.387Z,57.03
2024-02-27T02:27:31.601Z,57.08
2024-02-27T02:29:58.656Z,57.00
2024-02-27T02:32:25.646Z,57.25
2024-02-27T02:34:52.632Z,57.31
2024-02-27T02:37:19.817Z,57.12
2024-02-27T02:39:46.766Z,56.78
2024-02-27T02:42:13.840Z,57.18
2024-02-27T02:44:40.717Z,57.05
2024-02-27T02:47:07.636Z,56.81
2024-02-27T02:49:35.717Z,57.12
2024-02-27T02:52:03.928Z,56.98
2024-02-27T02:54:30.895Z,56.93
2024-02-27T02:56:57.987Z,57.08
2024-02-27T02:59:26.872Z,57.30
2024-02-27T03:01:53.843Z,57.41
2024-02-27T03:04:20.812Z,57.17
2024-02-27T03:06:47.878Z,57.30
2024-02-27T03:09:14.897Z,56.99
2024-02-27T03:11:41.795Z,57.09
2024-02-27T03:14:08.692Z,57.11
2024-02-27T03:16:35.643Z,57.22
2024-02-27T03:19:04.100Z,56.98
2024-02-27T03:21:33.741Z,57.10
2024-02-27T03:24:00.833Z,56.96
2024-02-27T03:26:27.708Z,56.82
2024-02-27T03:28:54.582Z,56.74
2024-02-27T03:31:21.470Z,56.60
2024-02-27T03:33:48.564Z,56.62
2024-02-27T03:36:15.614Z,56.63
2024-02-27T03:38:43.779Z,56.77
2024-02-27T03:41:14.654Z,56.79
2024-02-27T03:43:42.824Z,57.02
2024-02-27T03:46:10.551Z,56.76
2024-02-27T03:48:38.035Z,56.74
2024-02-27T03:51:05.316Z,56.71
2024-02-27T03:53:32.617Z,56.63
2024-02-27T03:55:59.928Z,56.51
2024-02-27T03:58:26.856Z,56.45
2024-02-27T04:00:54.482Z,56.37
2024-02-27T04:03:21.504Z,56.52
2024-02-27T04:05:48.607Z,56.39
2024-02-27T04:08:15.539Z,56.55
2024-02-27T04:10:42.508Z,56.25
2024-02-27T04:13:11.076Z,56.51
2024-02-27T04:15:37.994Z,56.50
2024-02-27T04:18:06.076Z,56.47
2024-02-27T04:20:33.015Z,56.59
2024-02-27T04:22:59.921Z,56.61
2024-02-27T04:25:26.879Z,56.81
2024-02-27T04:27:53.781Z,57.27
2024-02-27T04:30:20.641Z,57.44
2024-02-27T04:32:47.646Z,57.98
2024-02-27T04:35:15.925Z,58.37
2024-02-27T04:37:42.827Z,58.25
2024-02-27T04:40:10.524Z,58.18
2024-02-27T04:42:37.653Z,58.69
2024-02-27T04:45:05.033Z,58.86
2024-02-27T04:47:32.205Z,59.15
2024-02-27T04:49:59.430Z,59.56
2024-02-27T04:52:26.509Z,59.27
2024-02-27T04:54:53.435Z,59.47
2024-02-27T04:57:21.763Z,59.53
2024-02-27T04:59:48.657Z,60.22
2024-02-27T05:02:15.640Z,60.21
2024-02-27T05:04:42.511Z,60.17
2024-02-27T05:07:09.622Z,60.32
2024-02-27T05:09:36.828Z,60.83
2024-02-27T05:12:04.540Z,60.52
2024-02-27T05:14:31.536Z,60.48
2024-02-27T05:16:58.377Z,60.86
2024-02-27T05:19:25.519Z,60.36
2024-02-27T05:21:52.618Z,60.43
2024-02-27T05:24:19.654Z,60.85
2024-02-27T05:26:47.564Z,60.43
2024-02-27T05:29:15.060Z,60.27
2024-02-27T05:31:42.172Z,61.10
2024-02-27T05:34:09.131Z,61.54
2024-02-27T05:36:36.137Z,61.35
2024-02-27T05:39:03.366Z,61.37
2024-02-27T05:41:30.251Z,61.59
2024-02-27T05:43:57.121Z,62.03
2024-02-27T05:46:24.063Z,61.89
2024-02-27T05:48:51.147Z,61.55
2024-02-27T05:51:21.197Z,62.21
2024-02-27T05:53:48.486Z,61.66
2024-02-27T05:56:15.395Z,61.46
2024-02-27T05:58:42.363Z,61.18
2024-02-27T06:01:09.389Z,60.53
2024-02-27T06:03:36.703Z,60.52
2024-02-27T06:06:03.953Z,60.14
2024-02-27T06:08:30.938Z,60.28
2024-02-27T06:10:57.879Z,60.43
2024-02-27T06:13:26.392Z,59.67
2024-02-27T06:15:54.653Z,59.74
2024-02-27T06:18:21.687Z,60.01
2024-02-27T06:21:07.131Z,59.64
2024-02-27T06:23:34.025Z,59.54
2024-02-27T06:26:01.092Z,59.77
2024-02-27T06:28:27.994Z,59.62
2024-02-27T06:30:54.967Z,59.58
2024-02-27T06:33:22.384Z,59.50
2024-02-27T06:35:49.328Z,59.69
2024-02-27T06:38:16.449Z,59.49
2024-02-27T06:40:44.653Z,59.65
2024-02-27T06:43:11.705Z,59.66
2024-02-27T06:45:38.749Z,59.74
2024-02-27T06:48:06.204Z,59.29
2024-02-27T06:50:33.392Z,59.63
2024-02-27T06:53:00.830Z,59.53
2024-02-27T06:55:27.738Z,59.74
2024-02-27T06:57:54.648Z,59.65
2024-02-27T07:00:22.011Z,59.65
2024-02-27T07:02:51.087Z,60.07
2024-02-27T07:05:18.287Z,60.94
2024-02-27T07:07:45.193Z,61.10
2024-02-27T07:10:15.076Z,60.79
2024-02-27T07:12:44.805Z,61.12
2024-02-27T07:15:12.703Z,61.18
2024-02-27T07:17:39.599Z,60.84
2024-02-27T07:20:10.193Z,60.97
2024-02-27T07:22:37.180Z,61.41
2024-02-27T07:25:04.213Z,61.54
2024-02-27T07:27:31.080Z,61.92
2024-02-27T07:29:58.078Z,62.10
2024-02-27T07:32:25.170Z,62.21
2024-02-27T07:34:52.202Z,62.42
2024-02-27T07:37:19.200Z,62.23
2024-02-27T07:39:46.473Z,62.14
2024-02-27T07:42:14.064Z,61.63
2024-02-27T07:44:41.076Z,61.74
2024-02-27T07:47:07.955Z,61.40
2024-02-27T07:49:34.872Z,61.34
2024-02-27T07:52:01.960Z,61.13
2024-02-27T07:54:29.028Z,61.12
2024-02-27T07:56:55.909Z,61.01
2024-02-27T07:59:22.858Z,60.68
2024-02-27T08:01:49.816Z,60.60
2024-02-27T08:04:18.795Z,60.57
2024-02-27T08:06:46.114Z,60.55
2024-02-27T08:09:13.100Z,60.57
2024-02-27T08:11:40.188Z,61.20
2024-02-27T08:14:07.061Z,61.15
2024-02-27T08:16:33.960Z,61.25
2024-02-27T08:19:05.481Z,61.48
2024-02-27T08:21:33.425Z,61.22
2024-02-27T08:24:02.026Z,61.73
2024-02-27T08:26:29.568Z,61.12
2024-02-27T08:28:57.246Z,60.93
2024-02-27T08:31:24.843Z,60.90
2024-02-27T08:33:52.550Z,60.85
2024-02-27T08:36:19.644Z,60.90
2024-02-27T08:38:46.563Z,60.80
2024-02-27T08:41:15.019Z,61.01
2024-02-27T08:43:44.229Z,60.59
2024-02-27T08:46:17.681Z,61.34
2024-02-27T08:48:45.540Z,61.04
2024-02-27T08:51:12.490Z,61.59
2024-02-27T08:53:39.806Z,61.42
2024-02-27T08:56:07.905Z,61.29
2024-02-27T08:58:36.208Z,60.89
2024-02-27T09:01:03.705Z,61.46
2024-02-27T09:03:31.130Z,60.43
2024-02-27T09:05:58.083Z,60.82
2024-02-27T09:08:25.038Z,60.61
2024-02-27T09:10:51.976Z,60.20
2024-02-27T09:13:18.789Z,60.32
2024-02-27T09:15:45.919Z,59.96
2024-02-27T09:18:14.142Z,59.80
2024-02-27T09:20:44.641Z,59.66
2024-02-27T09:23:11.850Z,59.59
2024-02-27T09:25:39.488Z,59.02
2024-02-27T09:28:06.653Z,58.97
2024-02-27T09:30:33.643Z,59.58
2024-02-27T09:33:01.055Z,59.41
2024-02-27T09:35:28.028Z,59.38
2024-02-27T09:37:57.809Z,59.14
2024-02-27T09:40:26.179Z,59.10
2024-02-27T09:42:57.799Z,58.78
2024-02-27T09:45:27.350Z,59.38
2024-02-27T09:47:59.146Z,59.40
2024-02-27T09:50:29.105Z,59.61
2024-02-27T09:52:57.422Z,59.15
2024-02-27T09:55:26.891Z,59.04
2024-02-27T09:57:54.509Z,59.07
2024-02-27T10:00:22.412Z,58.64
2024-02-27T10:02:51.174Z,58.77
2024-02-27T10:05:23.143Z,58.35
2024-02-27T10:07:51.649Z,57.86
2024-02-27T10:10:19.704Z,57.53
2024-02-27T10:12:47.666Z,57.56
2024-02-27T10:15:16.049Z,56.71
2024-02-27T10:17:46.811Z,56.09
2024-02-27T10:20:18.875Z,55.54
2024-02-27T10:22:46.201Z,54.88
2024-02-27T10:25:16.104Z,54.67
2024-02-27T10:27:44.011Z,54.34
2024-02-27T10:30:13.044Z,53.62
2024-02-27T10:32:43.954Z,52.97
2024-02-27T10:35:12.752Z,52.43
2024-02-27T10:37:40.290Z,52.17
2024-02-27T10:40:09.106Z,51.54
2024-02-27T10:42:38.781Z,51.00
2024-02-27T10:45:07.035Z,50.63
2024-02-27T10:47:35.061Z,50.33
2024-02-27T10:50:07.280Z,49.69
2024-02-27T10:52:36.637Z,49.27
2024-02-27T10:55:04.495Z,49.40
2024-02-27T10:57:34.663Z,49.26
2024-02-27T11:00:01.794Z,48.73
2024-02-27T11:02:30.432Z,47.78
2024-02-27T11:05:01.173Z,47.56
2024-02-27T11:07:29.637Z,46.67
2024-02-27T11:09:59.585Z,46.76
2024-02-27T11:12:30.747Z,46.44
2024-02-27T11:15:05.613Z,46.15
2024-02-27T11:17:39.508Z,46.03
2024-02-27T11:20:08.477Z,46.09
2024-02-27T11:22:36.668Z,45.38
2024-02-27T11:25:05.104Z,45.49
2024-02-27T11:27:34.005Z,44.96
2024-02-27T11:30:02.717Z,44.96
2024-02-27T11:32:35.157Z,44.94
2024-02-27T11:35:04.276Z,44.83
2024-02-27T11:37:31.202Z,44.31
2024-02-27T11:39:59.307Z,44.03
2024-02-27T11:42:38.621Z,43.39
2024-02-27T11:45:10.186Z,43.07
2024-02-27T11:47:43.610Z,43.01
2024-02-27T11:50:14.480Z,42.47
2024-02-27T11:52:46.477Z,42.48
2024-02-27T11:55:13.895Z,42.70
2024-02-27T11:57:41.191Z,42.08
2024-02-27T12:00:17.584Z,41.82
2024-02-27T12:02:50.135Z,41.37
2024-02-27T12:05:19.607Z,41.44
2024-02-27T12:07:46.775Z,40.58
2024-02-27T12:10:15.311Z,40.57
2024-02-27T12:12:42.446Z,40.28
2024-02-27T12:15:11.147Z,39.60
2024-02-27T12:17:38.637Z,39.47
2024-02-27T12:20:12.363Z,38.86
2024-02-27T12:22:46.655Z,39.15
2024-02-27T12:25:16.471Z,38.65
2024-02-27T12:27:47.730Z,38.97
2024-02-27T12:30:15.085Z,38.91
2024-02-27T12:32:46.444Z,38.58
2024-02-27T12:35:15.183Z,39.04
2024-02-27T12:37:49.976Z,38.75
2024-02-27T12:40:20.415Z,39.14
2024-02-27T12:42:51.783Z,39.65
2024-02-27T12:45:19.715Z,39.34
2024-02-27T12:47:51.836Z,39.24
2024-02-27T12:50:25.951Z,39.29
2024-02-27T12:53:02.107Z,39.39
2024-02-27T12:55:37.856Z,39.10
2024-02-27T12:58:04.732Z,38.87
2024-02-27T13:00:33.321Z,39.32
2024-02-27T13:03:00.644Z,39.59
2024-02-27T13:05:28.197Z,39.72
2024-02-27T13:07:56.909Z,40.63
2024-02-27T13:10:24.479Z,41.84
2024-02-27T13:13:14.493Z,43.00
2024-02-27T13:15:47.491Z,43.59
2024-02-27T13:18:15.191Z,44.24
2024-02-27T13:20:43.158Z,46.57
2024-02-27T13:23:20.924Z,47.06
2024-02-27T13:25:54.142Z,48.11
2024-02-27T13:28:21.195Z,47.74
2024-02-27T13:30:48.158Z,48.67
2024-02-27T13:33:16.265Z,48.00
2024-02-27T13:35:43.340Z,47.13
2024-02-27T13:38:10.203Z,46.22
2024-02-27T13:40:37.229Z,46.22
2024-02-27T13:43:04.356Z,46.21
2024-02-27T13:45:31.549Z,45.17
2024-02-27T13:47:58.720Z,43.67
2024-02-27T13:50:26.027Z,44.00
2024-02-27T13:52:53.068Z,43.57
2024-02-27T13:55:20.001Z,43.56
2024-02-27T13:57:46.990Z,45.49
2024-02-27T14:00:14.444Z,46.73
2024-02-27T14:02:41.689Z,47.07
2024-02-27T14:05:08.736Z,47.23
2024-02-27T14:07:40.939Z,46.70
2024-02-27T14:10:09.338Z,47.24
2024-02-27T14:12:36.241Z,45.38
2024-02-27T14:15:04.245Z,43.30
2024-02-27T14:17:34.145Z,43.45
2024-02-27T14:20:01.933Z,44.63
2024-02-27T14:22:29.117Z,42.15
2024-02-27T14:24:56.645Z,41.93
2024-02-27T14:27:23.742Z,41.37
2024-02-27T14:29:50.811Z,40.97
2024-02-27T14:32:17.984Z,41.44
2024-02-27T14:34:48.730Z,41.94
2024-02-27T14:37:15.719Z,42.12
2024-02-27T14:39:42.612Z,42.28
2024-02-27T14:42:09.599Z,42.57
2024-02-27T14:44:36.701Z,42.69
2024-02-27T14:47:07.179Z,42.36
2024-02-27T14:49:34.159Z,41.93
2024-02-27T14:52:03.642Z,42.03
2024-02-27T14:54:30.501Z,42.11
2024-02-27T14:56:57.352Z,42.64
2024-02-27T14:59:24.198Z,43.46
2024-02-27T15:01:57.329Z,43.62
2024-02-27T15:04:27.668Z,43.10
2024-02-27T15:06:54.774Z,43.13
2024-02-27T15:09:24.686Z,43.67
2024-02-27T15:11:51.642Z,43.84
2024-02-27T15:14:18.537Z,44.37
2024-02-27T15:16:45.336Z,44.64
2024-02-27T15:19:12.365Z,44.57
2024-02-27T15:21:40.600Z,46.86
2024-02-27T15:24:08.095Z,48.88
2024-02-27T15:26:36.778Z,51.57
2024-02-27T15:29:04.102Z,51.92
2024-02-27T15:31:31.057Z,53.01
2024-02-27T15:33:58.046Z,54.59
2024-02-27T15:36:25.073Z,55.24
2024-02-27T15:38:51.943Z,55.53
2024-02-27T15:41:18.866Z,55.73
2024-02-27T15:43:46.322Z,55.78
2024-02-27T15:46:13.182Z,55.57
2024-02-27T15:48:40.385Z,55.00
2024-02-27T15:51:11.746Z,54.51
2024-02-27T15:53:39.929Z,55.14
2024-02-27T15:56:10.867Z,54.62
2024-02-27T15:58:38.812Z,54.18
2024-02-27T16:01:06.282Z,53.68
2024-02-27T16:03:58.353Z,53.68
2024-02-27T16:06:41.119Z,53.41
2024-02-27T16:09:08.030Z,53.00
2024-02-27T16:11:34.931Z,52.81
2024-02-27T16:14:01.744Z,53.50
2024-02-27T16:16:28.578Z,53.55
2024-02-27T16:18:57.295Z,54.16
2024-02-27T16:21:39.697Z,55.02
2024-02-27T16:24:09.161Z,55.99
2024-02-27T16:26:37.101Z,55.82
2024-02-27T16:29:06.337Z,55.04
2024-02-27T16:31:36.322Z,55.38
2024-02-27T16:34:03.293Z,55.47
2024-02-27T16:36:30.376Z,55.94
2024-02-27T16:38:57.394Z,55.87
2024-02-27T16:41:24.273Z,56.10
2024-02-27T16:43:51.125Z,56.58
2024-02-27T16:46:18.735Z,56.58
2024-02-27T16:48:45.696Z,56.61
2024-02-27T16:51:12.733Z,56.88
2024-02-27T16:53:39.721Z,57.21
2024-02-27T16:56:07.010Z,57.18
2024-02-27T16:58:34.622Z,57.30
2024-02-27T17:01:02.273Z,57.89
2024-02-27T17:03:30.010Z,58.03
2024-02-27T17:06:01.422Z,58.15
2024-02-27T17:08:28.327Z,58.42
2024-02-27T17:10:56.398Z,58.39
2024-02-27T17:13:23.253Z,58.75
2024-02-27T17:15:50.188Z,59.33
2024-02-27T17:18:17.429Z,60.47
2024-02-27T17:20:44.411Z,60.21
2024-02-27T17:23:17.265Z,59.99
2024-02-27T17:25:49.122Z,59.23
2024-02-27T17:28:15.933Z,59.17
2024-02-27T17:30:42.989Z,60.41
2024-02-27T17:33:11.428Z,61.36
2024-02-27T17:35:38.468Z,62.09
2024-02-27T17:38:05.316Z,62.41
2024-02-27T17:40:32.265Z,62.48
2024-02-27T17:42:59.159Z,62.26
2024-02-27T17:45:26.021Z,62.09
2024-02-27T17:47:53.020Z,61.87
2024-02-27T17:50:19.866Z,62.51
2024-02-27T17:52:46.709Z,62.11
2024-02-27T17:55:13.769Z,61.82
2024-02-27T17:57:41.575Z,61.90
2024-02-27T18:00:09.087Z,61.25
2024-02-27T18:02:35.919Z,61.31
2024-02-27T18:05:02.737Z,61.30
2024-02-27T18:07:29.660Z,61.07
2024-02-27T18:09:56.612Z,60.75
2024-02-27T18:12:23.513Z,60.48
2024-02-27T18:14:50.395Z,60.12
2024-02-27T18:17:17.191Z,60.23
2024-02-27T18:19:44.824Z,60.38
2024-02-27T18:22:11.795Z,60.09
2024-02-27T18:24:38.680Z,60.10
2024-02-27T18:27:06.579Z,59.67
2024-02-27T18:29:35.140Z,59.63
2024-02-27T18:32:02.122Z,59.71
2024-02-27T18:34:29.564Z,60.13
2024-02-27T18:36:56.445Z,59.94
2024-02-27T18:39:24.362Z,59.64
2024-02-27T18:41:51.217Z,59.33
2024-02-27T18:44:18.014Z,59.52
2024-02-27T18:46:44.896Z,59.19
2024-02-27T18:49:11.791Z,58.53
2024-02-27T18:51:41.845Z,58.20
2024-02-27T18:54:09.225Z,58.06
2024-02-27T18:56:38.132Z,58.63
2024-02-27T18:59:05.124Z,58.11
2024-02-27T19:01:33.223Z,57.75
2024-02-27T19:04:00.102Z,57.59
2024-02-27T19:06:27.346Z,57.67
2024-02-27T19:08:54.403Z,57.52
2024-02-27T19:11:21.754Z,57.59
2024-02-27T19:13:48.864Z,57.25
2024-02-27T19:16:17.132Z,57.21
2024-02-27T19:18:44.116Z,57.80
2024-02-27T19:21:11.030Z,57.82
2024-02-27T19:23:37.928Z,57.68
2024-02-27T19:26:04.933Z,57.71
2024-02-27T19:28:34.517Z,57.89
2024-02-27T19:31:01.398Z,57.87
2024-02-27T19:33:28.246Z,57.68
2024-02-27T19:35:55.179Z,57.84
2024-02-27T19:38:22.094Z,57.93
2024-02-27T19:40:48.971Z,57.97
2024-02-27T19:43:16.337Z,57.83
2024-02-27T19:45:44.666Z,57.48
2024-02-27T19:48:11.780Z,57.49
2024-02-27T19:50:38.685Z,57.79
2024-02-27T19:53:07.515Z,58.03
2024-02-27T19:55:34.664Z,58.08
2024-02-27T19:58:01.519Z,58.17
2024-02-27T20:00:29.317Z,57.86
2024-02-27T20:02:56.251Z,57.92
2024-02-27T20:05:23.171Z,58.60
2024-02-27T20:07:50.854Z,58.69
2024-02-27T20:10:18.113Z,58.57
2024-02-27T20:12:45.123Z,58.59
2024-02-27T20:15:12.226Z,58.62
2024-02-27T20:17:39.111Z,58.49
2024-02-27T20:20:06.704Z,58.42
2024-02-27T20:22:33.540Z,58.30
2024-02-27T20:25:00.970Z,58.33
2024-02-27T20:27:28.385Z,59.38
2024-02-27T20:29:59.203Z,59.91
2024-02-27T20:32:27.937Z,59.44
2024-02-27T20:34:55.143Z,59.31
2024-02-27T20:37:22.021Z,58.86
2024-02-27T20:39:49.294Z,58.32
2024-02-27T20:42:16.336Z,57.85
2024-02-27T20:44:43.309Z,57.25
2024-02-27T20:47:10.589Z,57.36
2024-02-27T20:49:37.435Z,57.43
2024-02-27T20:52:04.433Z,57.52
2024-02-27T20:54:32.092Z,57.79
2024-02-27T20:56:59.719Z,57.64
2024-02-27T20:59:26.699Z,57.77
2024-02-27T21:01:53.521Z,58.31
2024-02-27T21:04:20.397Z,59.31
2024-02-27T21:06:47.802Z,60.38
2024-02-27T21:09:14.754Z,60.69
2024-02-27T21:11:41.655Z,60.39
2024-02-27T21:14:08.779Z,61.60
2024-02-27T21:16:35.637Z,62.31
2024-02-27T21:19:02.483Z,62.24
2024-02-27T21:21:29.426Z,63.72
2024-02-27T21:23:56.953Z,63.79
2024-02-27T21:26:25.132Z,63.54
2024-02-27T21:28:51.983Z,63.71
2024-02-27T21:31:18.813Z,63.47
2024-02-27T21:33:45.805Z,63.53
2024-02-27T21:36:12.979Z,63.78
2024-02-27T21:38:39.985Z,63.63
2024-02-27T21:41:06.914Z,63.67
2024-02-27T21:43:33.901Z,63.88
2024-02-27T21:46:02.545Z,63.95
2024-02-27T21:48:29.614Z,63.93
2024-02-27T21:50:56.504Z,64.03
2024-02-27T21:53:23.392Z,64.11
2024-02-27T21:55:50.322Z,64.23
2024-02-27T21:58:17.183Z,64.48
2024-02-27T22:00:44.461Z,64.42
2024-02-27T22:03:13.340Z,64.70
2024-02-27T22:05:40.272Z,64.56
2024-02-27T22:08:07.513Z,64.79
2024-02-27T22:10:34.438Z,64.81
2024-02-27T22:13:01.461Z,65.06
2024-02-27T22:15:30.067Z,64.93
2024-02-27T22:17:57.118Z,65.07
2024-02-27T22:20:24.083Z,65.19
2024-02-27T22:22:51.620Z,65.37
2024-02-27T22:25:18.608Z,65.31
2024-02-27T22:27:45.616Z,65.75
2024-02-27T22:30:15.966Z,65.67
2024-02-27T22:32:43.570Z,65.81
2024-02-27T22:35:10.715Z,66.07
2024-02-27T22:37:37.622Z,66.05
2024-02-27T22:40:05.758Z,66.01
2024-02-27T22:42:32.747Z,66.17
2024-02-27T22:44:59.738Z,66.25
2024-02-27T22:47:26.681Z,66.14
2024-02-27T22:49:53.589Z,66.49
2024-02-27T22:52:20.529Z,66.56
2024-02-27T22:54:47.570Z,66.64
2024-02-27T22:57:14.593Z,66.73
2024-02-27T22:59:41.455Z,66.46
2024-02-27T23:02:08.642Z,66.65
2024-02-27T23:04:35.526Z,66.50
2024-02-27T23:07:02.569Z,66.58
2024-02-27T23:09:30.667Z,66.56
2024-02-27T23:11:57.671Z,66.67
2024-02-27T23:14:24.603Z,66.79
2024-02-27T23:16:51.463Z,67.16
2024-02-27T23:19:18.361Z,67.05
2024-02-27T23:21:46.897Z,67.33
2024-02-27T23:24:15.601Z,67.18
2024-02-27T23:26:42.622Z,67.24
2024-02-27T23:29:09.816Z,67.44
2024-02-27T23:31:36.933Z,67.57
2024-02-27T23:34:05.991Z,67.80
2024-02-27T23:36:33.140Z,67.93
2024-02-27T23:39:00.074Z,67.89
2024-02-27T23:41:26.951Z,67.74
2024-02-27T23:43:53.845Z,67.68
2024-02-27T23:46:22.150Z,67.96
2024-02-27T23:48:49.801Z,67.93
2024-02-27T23:51:16.812Z,67.70
2024-02-27T23:53:43.772Z,67.69
2024-02-27T23:56:10.625Z,67.70
2024-02-27T23:58:37.741Z,67.63
